sensor_id;sensor_type;location;lat;lon;timestamp;pressure;altitude;pressure_sealevel;temperature;humidity
44140;BME280;29803;51.048;4.686;2023-02-15T00:00:36;102859.53;;;0.23;100.00
44140;BME280;29803;51.048;4.686;2023-02-15T00:03:07;102859.59;;;0.21;100.00
44140;BME280;29803;51.048;4.686;2023-02-15T00:05:37;102854.31;;;0.21;100.00
44140;BME280;29803;51.048;4.686;2023-02-15T00:08:08;102854.41;;;0.18;100.00
44140;BME280;29803;51.048;4.686;2023-02-15T00:10:38;102844.91;;;0.13;100.00
44140;BME280;29803;51.048;4.686;2023-02-15T00:13:08;102848.53;;;0.10;100.00
44140;BME280;29803;51.048;4.686;2023-02-15T00:15:39;102845.06;;;0.08;100.00
44140;BME280;29803;51.048;4.686;2023-02-15T00:18:09;102838.94;;;0.08;100.00
44140;BME280;29803;51.048;4.686;2023-02-15T00:20:40;102840.72;;;0.07;100.00
44140;BME280;29803;51.048;4.686;2023-02-15T00:23:10;102836.44;;;0.03;100.00
44140;BME280;29803;51.048;4.686;2023-02-15T00:25:40;102840.06;;;0.01;100.00
44140;BME280;29803;51.048;4.686;2023-02-15T00:28:11;102835.72;;;-0.02;100.00
44140;BME280;29803;51.048;4.686;2023-02-15T00:30:41;102829.66;;;-0.04;100.00
44140;BME280;29803;51.048;4.686;2023-02-15T00:33:12;102839.22;;;-0.02;100.00
44140;BME280;29803;51.048;4.686;2023-02-15T00:35:42;102831.38;;;-0.03;100.00
44140;BME280;29803;51.048;4.686;2023-02-15T00:38:13;102817.34;;;-0.05;100.00
44140;BME280;29803;51.048;4.686;2023-02-15T00:40:43;102824.50;;;-0.09;100.00
44140;BME280;29803;51.048;4.686;2023-02-15T00:43:13;102821.16;;;-0.14;100.00
44140;BME280;29803;51.048;4.686;2023-02-15T00:45:45;102821.38;;;-0.21;100.00
44140;BME280;29803;51.048;4.686;2023-02-15T00:48:16;102812.81;;;-0.28;100.00
44140;BME280;29803;51.048;4.686;2023-02-15T00:50:49;102812.88;;;-0.30;100.00
44140;BME280;29803;51.048;4.686;2023-02-15T00:53:21;102807.59;;;-0.30;100.00
44140;BME280;29803;51.048;4.686;2023-02-15T00:55:52;102802.34;;;-0.31;100.00
44140;BME280;29803;51.048;4.686;2023-02-15T00:58:23;102805.09;;;-0.34;100.00
44140;BME280;29803;51.048;4.686;2023-02-15T01:00:53;102803.53;;;-0.40;100.00
44140;BME280;29803;51.048;4.686;2023-02-15T01:03:24;102802.88;;;-0.48;100.00
44140;BME280;29803;51.048;4.686;2023-02-15T01:05:54;102801.44;;;-0.58;100.00
44140;BME280;29803;51.048;4.686;2023-02-15T01:08:25;102799.88;;;-0.64;100.00
44140;BME280;29803;51.048;4.686;2023-02-15T01:10:55;102799.13;;;-0.69;100.00
44140;BME280;29803;51.048;4.686;2023-02-15T01:13:26;102795.63;;;-0.69;100.00
44140;BME280;29803;51.048;4.686;2023-02-15T01:15:56;102786.88;;;-0.70;100.00
44140;BME280;29803;51.048;4.686;2023-02-15T01:18:27;102791.22;;;-0.69;100.00
44140;BME280;29803;51.048;4.686;2023-02-15T01:20:57;102798.16;;;-0.66;100.00
44140;BME280;29803;51.048;4.686;2023-02-15T01:23:28;102793.66;;;-0.63;100.00
44140;BME280;29803;51.048;4.686;2023-02-15T01:26:01;102791.94;;;-0.64;100.00
44140;BME280;29803;51.048;4.686;2023-02-15T01:28:32;102800.81;;;-0.66;100.00
44140;BME280;29803;51.048;4.686;2023-02-15T01:31:19;102790.25;;;-0.66;100.00
44140;BME280;29803;51.048;4.686;2023-02-15T01:33:50;102792.88;;;-0.65;100.00
44140;BME280;29803;51.048;4.686;2023-02-15T01:36:21;102782.34;;;-0.66;100.00
44140;BME280;29803;51.048;4.686;2023-02-15T01:38:51;102786.75;;;-0.65;100.00
44140;BME280;29803;51.048;4.686;2023-02-15T01:41:22;102783.94;;;-0.61;100.00
44140;BME280;29803;51.048;4.686;2023-02-15T01:46:44;102769.00;;;-0.60;100.00
44140;BME280;29803;51.048;4.686;2023-02-15T01:49:20;102776.13;;;-0.64;100.00
44140;BME280;29803;51.048;4.686;2023-02-15T01:51:52;102769.22;;;-0.68;100.00
44140;BME280;29803;51.048;4.686;2023-02-15T01:54:25;102772.84;;;-0.72;100.00
44140;BME280;29803;51.048;4.686;2023-02-15T01:57:02;102772.13;;;-0.77;100.00
44140;BME280;29803;51.048;4.686;2023-02-15T01:59:35;102771.41;;;-0.82;100.00
44140;BME280;29803;51.048;4.686;2023-02-15T02:02:09;102768.91;;;-0.87;100.00
44140;BME280;29803;51.048;4.686;2023-02-15T02:04:58;102763.78;;;-0.91;100.00
44140;BME280;29803;51.048;4.686;2023-02-15T02:07:33;102763.03;;;-0.95;100.00
44140;BME280;29803;51.048;4.686;2023-02-15T02:10:06;102760.38;;;-0.95;100.00
44140;BME280;29803;51.048;4.686;2023-02-15T02:12:38;102762.09;;;-0.94;100.00
44140;BME280;29803;51.048;4.686;2023-02-15T02:15:10;102763.88;;;-0.94;100.00
44140;BME280;29803;51.048;4.686;2023-02-15T02:20:57;102762.19;;;-0.97;100.00
44140;BME280;29803;51.048;4.686;2023-02-15T02:23:38;102764.03;;;-0.99;100.00
44140;BME280;29803;51.048;4.686;2023-02-15T02:38:06;102739.06;;;-1.17;100.00
44140;BME280;29803;51.048;4.686;2023-02-15T02:43:55;102724.31;;;-1.22;100.00
44140;BME280;29803;51.048;4.686;2023-02-15T02:46:53;102721.13;;;-1.34;100.00
44140;BME280;29803;51.048;4.686;2023-02-15T02:49:43;102717.88;;;-1.43;100.00
44140;BME280;29803;51.048;4.686;2023-02-15T02:52:46;102717.22;;;-1.50;100.00
44140;BME280;29803;51.048;4.686;2023-02-15T02:55:31;102723.34;;;-1.51;100.00
44140;BME280;29803;51.048;4.686;2023-02-15T02:58:11;102712.75;;;-1.48;100.00
44140;BME280;29803;51.048;4.686;2023-02-15T03:00:48;102716.19;;;-1.46;100.00
44140;BME280;29803;51.048;4.686;2023-02-15T03:03:42;102715.34;;;-1.46;100.00
44140;BME280;29803;51.048;4.686;2023-02-15T03:06:19;102708.28;;;-1.46;100.00
44140;BME280;29803;51.048;4.686;2023-02-15T03:08:58;102704.81;;;-1.46;100.00
44140;BME280;29803;51.048;4.686;2023-02-15T03:11:31;102706.56;;;-1.47;100.00
44140;BME280;29803;51.048;4.686;2023-02-15T03:14:02;102714.47;;;-1.47;100.00
44140;BME280;29803;51.048;4.686;2023-02-15T03:16:32;102708.34;;;-1.47;100.00
44140;BME280;29803;51.048;4.686;2023-02-15T03:19:09;102705.59;;;-1.43;100.00
44140;BME280;29803;51.048;4.686;2023-02-15T03:21:45;102703.88;;;-1.44;100.00
44140;BME280;29803;51.048;4.686;2023-02-15T03:24:21;102699.53;;;-1.46;100.00
44140;BME280;29803;51.048;4.686;2023-02-15T03:26:54;102696.16;;;-1.50;100.00
44140;BME280;29803;51.048;4.686;2023-02-15T03:29:27;102694.50;;;-1.54;100.00
44140;BME280;29803;51.048;4.686;2023-02-15T03:32:01;102690.31;;;-1.61;100.00
44140;BME280;29803;51.048;4.686;2023-02-15T03:34:33;102697.59;;;-1.71;100.00
44140;BME280;29803;51.048;4.686;2023-02-15T03:37:10;102693.41;;;-1.78;100.00
44140;BME280;29803;51.048;4.686;2023-02-15T03:39:59;102693.53;;;-1.83;100.00
44140;BME280;29803;51.048;4.686;2023-02-15T03:42:55;102688.38;;;-1.86;100.00
44140;BME280;29803;51.048;4.686;2023-02-15T03:45:31;102684.91;;;-1.88;100.00
44140;BME280;29803;51.048;4.686;2023-02-15T03:48:04;102683.09;;;-1.86;100.00
44140;BME280;29803;51.048;4.686;2023-02-15T03:50:37;102686.59;;;-1.85;100.00
44140;BME280;29803;51.048;4.686;2023-02-15T03:53:27;102686.56;;;-1.84;100.00
44140;BME280;29803;51.048;4.686;2023-02-15T03:55:57;102678.66;;;-1.84;100.00
44140;BME280;29803;51.048;4.686;2023-02-15T03:58:28;102681.34;;;-1.85;100.00
44140;BME280;29803;51.048;4.686;2023-02-15T04:01:25;102673.47;;;-1.87;100.00
44140;BME280;29803;51.048;4.686;2023-02-15T04:04:19;102677.06;;;-1.89;100.00
44140;BME280;29803;51.048;4.686;2023-02-15T04:06:50;102675.34;;;-1.92;100.00
44140;BME280;29803;51.048;4.686;2023-02-15T04:09:21;102673.63;;;-1.93;100.00
44140;BME280;29803;51.048;4.686;2023-02-15T04:12:10;102675.47;;;-1.95;100.00
44140;BME280;29803;51.048;4.686;2023-02-15T04:14:41;102670.28;;;-1.98;100.00
44140;BME280;29803;51.048;4.686;2023-02-15T04:17:30;102676.44;;;-1.99;100.00
44140;BME280;29803;51.048;4.686;2023-02-15T04:20:00;102673.03;;;-2.02;100.00
44140;BME280;29803;51.048;4.686;2023-02-15T04:22:49;102672.22;;;-2.06;100.00
44140;BME280;29803;51.048;4.686;2023-02-15T04:25:38;102664.44;;;-2.09;100.00
44140;BME280;29803;51.048;4.686;2023-02-15T04:28:08;102671.41;;;-2.08;100.00
44140;BME280;29803;51.048;4.686;2023-02-15T04:30:39;102667.88;;;-2.07;100.00
44140;BME280;29803;51.048;4.686;2023-02-15T04:33:09;102666.09;;;-2.06;100.00
44140;BME280;29803;51.048;4.686;2023-02-15T04:35:40;102663.47;;;-2.06;100.00
44140;BME280;29803;51.048;4.686;2023-02-15T04:38:11;102668.78;;;-2.08;100.00
44140;BME280;29803;51.048;4.686;2023-02-15T04:40:41;102666.22;;;-2.10;100.00
44140;BME280;29803;51.048;4.686;2023-02-15T04:43:12;102668.84;;;-2.11;100.00
44140;BME280;29803;51.048;4.686;2023-02-15T04:45:48;102664.50;;;-2.11;100.00
44140;BME280;29803;51.048;4.686;2023-02-15T04:48:20;102668.06;;;-2.13;100.00
44140;BME280;29803;51.048;4.686;2023-02-15T04:50:50;102661.88;;;-2.12;100.00
44140;BME280;29803;51.048;4.686;2023-02-15T04:53:21;102663.59;;;-2.10;100.00
44140;BME280;29803;51.048;4.686;2023-02-15T04:55:51;102664.28;;;-2.03;100.00
44140;BME280;29803;51.048;4.686;2023-02-15T04:58:22;102663.34;;;-2.02;100.00
44140;BME280;29803;51.048;4.686;2023-02-15T05:00:55;102659.81;;;-2.01;100.00
44140;BME280;29803;51.048;4.686;2023-02-15T05:03:25;102662.50;;;-2.02;100.00
44140;BME280;29803;51.048;4.686;2023-02-15T05:05:56;102664.31;;;-2.04;100.00
44140;BME280;29803;51.048;4.686;2023-02-15T05:08:26;102655.72;;;-2.11;100.00
44140;BME280;29803;51.048;4.686;2023-02-15T05:10:57;102654.97;;;-2.16;100.00
44140;BME280;29803;51.048;4.686;2023-02-15T05:13:27;102645.41;;;-2.19;100.00
44140;BME280;29803;51.048;4.686;2023-02-15T05:15:58;102650.75;;;-2.22;100.00
44140;BME280;29803;51.048;4.686;2023-02-15T05:18:28;102642.91;;;-2.23;100.00
44140;BME280;29803;51.048;4.686;2023-02-15T05:20:59;102642.91;;;-2.23;100.00
44140;BME280;29803;51.048;4.686;2023-02-15T05:23:29;102641.13;;;-2.23;100.00
44140;BME280;29803;51.048;4.686;2023-02-15T05:25:59;102635.88;;;-2.23;100.00
44140;BME280;29803;51.048;4.686;2023-02-15T05:28:48;102643.69;;;-2.20;100.00
44140;BME280;29803;51.048;4.686;2023-02-15T05:31:19;102640.09;;;-2.16;100.00
44140;BME280;29803;51.048;4.686;2023-02-15T05:33:50;102643.53;;;-2.14;100.00
44140;BME280;29803;51.048;4.686;2023-02-15T05:36:20;102636.50;;;-2.13;100.00
44140;BME280;29803;51.048;4.686;2023-02-15T05:38:50;102640.84;;;-2.12;100.00
44140;BME280;29803;51.048;4.686;2023-02-15T05:41:21;102640.09;;;-2.16;100.00
44140;BME280;29803;51.048;4.686;2023-02-15T05:43:54;102640.94;;;-2.15;100.00
44140;BME280;29803;51.048;4.686;2023-02-15T05:46:25;102640.03;;;-2.14;100.00
44140;BME280;29803;51.048;4.686;2023-02-15T05:48:55;102638.25;;;-2.14;100.00
44140;BME280;29803;51.048;4.686;2023-02-15T05:51:26;102643.47;;;-2.12;100.00
44140;BME280;29803;51.048;4.686;2023-02-15T05:53:56;102636.53;;;-2.15;100.00
44140;BME280;29803;51.048;4.686;2023-02-15T05:56:27;102640.09;;;-2.17;100.00
44140;BME280;29803;51.048;4.686;2023-02-15T05:58:57;102634.09;;;-2.21;100.00
44140;BME280;29803;51.048;4.686;2023-02-15T06:01:28;102634.16;;;-2.24;100.00
44140;BME280;29803;51.048;4.686;2023-02-15T06:03:58;102637.72;;;-2.26;100.00
44140;BME280;29803;51.048;4.686;2023-02-15T06:06:29;102635.06;;;-2.26;100.00
44140;BME280;29803;51.048;4.686;2023-02-15T06:08:59;102636.84;;;-2.27;100.00
44140;BME280;29803;51.048;4.686;2023-02-15T06:11:30;102638.63;;;-2.27;100.00
44140;BME280;29803;51.048;4.686;2023-02-15T06:14:00;102641.25;;;-2.27;100.00
44140;BME280;29803;51.048;4.686;2023-02-15T06:16:31;102641.25;;;-2.27;100.00
44140;BME280;29803;51.048;4.686;2023-02-15T06:19:02;102645.69;;;-2.29;100.00
44140;BME280;29803;51.048;4.686;2023-02-15T06:21:32;102649.25;;;-2.32;100.00
44140;BME280;29803;51.048;4.686;2023-02-15T06:24:03;102643.19;;;-2.34;100.00
44140;BME280;29803;51.048;4.686;2023-02-15T06:26:33;102642.34;;;-2.36;100.00
44140;BME280;29803;51.048;4.686;2023-02-15T06:29:03;102631.06;;;-2.40;100.00
44140;BME280;29803;51.048;4.686;2023-02-15T06:31:34;102634.63;;;-2.42;100.00
44140;BME280;29803;51.048;4.686;2023-02-15T06:34:05;102636.44;;;-2.44;100.00
44140;BME280;29803;51.048;4.686;2023-02-15T06:36:36;102629.47;;;-2.45;100.00
44140;BME280;29803;51.048;4.686;2023-02-15T06:39:07;102634.72;;;-2.47;100.00
44140;BME280;29803;51.048;4.686;2023-02-15T06:41:37;102623.34;;;-2.46;100.00
44140;BME280;29803;51.048;4.686;2023-02-15T06:44:09;102627.69;;;-2.45;100.00
44140;BME280;29803;51.048;4.686;2023-02-15T06:46:39;102625.88;;;-2.43;100.00
44140;BME280;29803;51.048;4.686;2023-02-15T06:49:10;102626.78;;;-2.44;100.00
44140;BME280;29803;51.048;4.686;2023-02-15T06:51:41;102629.47;;;-2.47;100.00
44140;BME280;29803;51.048;4.686;2023-02-15T06:54:12;102628.66;;;-2.49;100.00
44140;BME280;29803;51.048;4.686;2023-02-15T06:56:42;102628.72;;;-2.50;100.00
44140;BME280;29803;51.048;4.686;2023-02-15T06:59:13;102621.72;;;-2.51;100.00
44140;BME280;29803;51.048;4.686;2023-02-15T07:01:44;102635.75;;;-2.51;100.00
44140;BME280;29803;51.048;4.686;2023-02-15T07:04:15;102633.88;;;-2.47;100.00
44140;BME280;29803;51.048;4.686;2023-02-15T07:06:45;102632.16;;;-2.48;100.00
44140;BME280;29803;51.048;4.686;2023-02-15T07:09:16;102624.31;;;-2.50;100.00
44140;BME280;29803;51.048;4.686;2023-02-15T07:11:46;102626.91;;;-2.48;100.00
44140;BME280;29803;51.048;4.686;2023-02-15T07:14:35;102629.38;;;-2.42;100.00
44140;BME280;29803;51.048;4.686;2023-02-15T07:17:06;102627.47;;;-2.36;100.00
44140;BME280;29803;51.048;4.686;2023-02-15T07:19:36;102630.72;;;-2.27;100.00
44140;BME280;29803;51.048;4.686;2023-02-15T07:22:07;102632.31;;;-2.20;100.00
44140;BME280;29803;51.048;4.686;2023-02-15T07:24:37;102630.38;;;-2.14;100.00
44140;BME280;29803;51.048;4.686;2023-02-15T07:27:08;102630.16;;;-2.06;100.00
44140;BME280;29803;51.048;4.686;2023-02-15T07:29:38;102623.91;;;-2.02;100.00
44140;BME280;29803;51.048;4.686;2023-02-15T07:32:09;102630.75;;;-1.96;100.00
44140;BME280;29803;51.048;4.686;2023-02-15T07:34:40;102628.72;;;-1.85;100.00
44140;BME280;29803;51.048;4.686;2023-02-15T07:37:10;102622.09;;;-1.69;100.00
44140;BME280;29803;51.048;4.686;2023-02-15T07:39:41;102622.38;;;-1.48;100.00
44140;BME280;29803;51.048;4.686;2023-02-15T07:42:11;102623.50;;;-1.27;100.00
44140;BME280;29803;51.048;4.686;2023-02-15T07:44:42;102633.22;;;-1.00;100.00
44140;BME280;29803;51.048;4.686;2023-02-15T07:47:12;102623.69;;;-0.77;100.00
44140;BME280;29803;51.048;4.686;2023-02-15T07:49:43;102625.06;;;-0.66;100.00
44140;BME280;29803;51.048;4.686;2023-02-15T07:52:13;102631.91;;;-0.60;100.00
44140;BME280;29803;51.048;4.686;2023-02-15T07:54:43;102624.28;;;-0.43;100.00
44140;BME280;29803;51.048;4.686;2023-02-15T07:57:14;102619.19;;;-0.22;100.00
44140;BME280;29803;51.048;4.686;2023-02-15T07:59:44;102615.91;;;-0.04;100.00
44140;BME280;29803;51.048;4.686;2023-02-15T08:02:15;102617.31;;;0.06;100.00
44140;BME280;29803;51.048;4.686;2023-02-15T08:04:45;102612.00;;;0.31;100.00
44140;BME280;29803;51.048;4.686;2023-02-15T08:07:16;102612.53;;;0.63;100.00
44140;BME280;29803;51.048;4.686;2023-02-15T08:09:46;102617.41;;;0.95;100.00
44140;BME280;29803;51.048;4.686;2023-02-15T08:12:17;102608.69;;;1.15;100.00
44140;BME280;29803;51.048;4.686;2023-02-15T08:14:47;102598.34;;;1.31;100.00
44140;BME280;29803;51.048;4.686;2023-02-15T08:17:18;102602.84;;;1.49;100.00
44140;BME280;29803;51.048;4.686;2023-02-15T08:19:48;102587.25;;;1.84;100.00
44140;BME280;29803;51.048;4.686;2023-02-15T08:22:18;102591.78;;;2.21;100.00
44140;BME280;29803;51.048;4.686;2023-02-15T08:24:49;102584.91;;;2.17;100.00
44140;BME280;29803;51.048;4.686;2023-02-15T08:27:20;102583.25;;;2.33;100.00
44140;BME280;29803;51.048;4.686;2023-02-15T08:29:56;102594.22;;;2.64;100.00
44140;BME280;29803;51.048;4.686;2023-02-15T08:32:27;102593.19;;;2.85;100.00
44140;BME280;29803;51.048;4.686;2023-02-15T08:34:57;102586.25;;;3.19;100.00
44140;BME280;29803;51.048;4.686;2023-02-15T08:37:28;102585.09;;;3.42;100.00
44140;BME280;29803;51.048;4.686;2023-02-15T08:39:58;102589.47;;;3.60;100.00
44140;BME280;29803;51.048;4.686;2023-02-15T08:42:29;102591.94;;;3.98;100.00
44140;BME280;29803;51.048;4.686;2023-02-15T08:45:00;102588.00;;;4.05;100.00
44140;BME280;29803;51.048;4.686;2023-02-15T08:47:31;102590.41;;;4.09;100.00
44140;BME280;29803;51.048;4.686;2023-02-15T08:50:01;102588.63;;;4.26;100.00
44140;BME280;29803;51.048;4.686;2023-02-15T08:52:32;102589.00;;;4.51;100.00
44140;BME280;29803;51.048;4.686;2023-02-15T08:55:02;102590.25;;;4.77;100.00
44140;BME280;29803;51.048;4.686;2023-02-15T08:57:33;102584.56;;;4.83;100.00
44140;BME280;29803;51.048;4.686;2023-02-15T09:00:04;102587.22;;;4.99;100.00
44140;BME280;29803;51.048;4.686;2023-02-15T09:02:35;102579.91;;;5.18;100.00
44140;BME280;29803;51.048;4.686;2023-02-15T09:05:06;102578.91;;;5.35;100.00
44140;BME280;29803;51.048;4.686;2023-02-15T09:07:37;102582.94;;;5.57;100.00
44140;BME280;29803;51.048;4.686;2023-02-15T09:10:07;102571.88;;;5.79;100.00
44140;BME280;29803;51.048;4.686;2023-02-15T09:12:38;102575.53;;;6.06;100.00
44140;BME280;29803;51.048;4.686;2023-02-15T09:15:08;102567.66;;;6.19;100.00
44140;BME280;29803;51.048;4.686;2023-02-15T09:17:41;102578.50;;;6.30;100.00
44140;BME280;29803;51.048;4.686;2023-02-15T09:20:11;102569.06;;;6.39;100.00
44140;BME280;29803;51.048;4.686;2023-02-15T09:22:42;102568.38;;;6.49;100.00
44140;BME280;29803;51.048;4.686;2023-02-15T09:25:12;102572.38;;;6.42;100.00
44140;BME280;29803;51.048;4.686;2023-02-15T09:27:43;102573.13;;;6.59;100.00
44140;BME280;29803;51.048;4.686;2023-02-15T09:30:14;102571.28;;;6.73;100.00
44140;BME280;29803;51.048;4.686;2023-02-15T09:32:45;102580.56;;;6.95;100.00
44140;BME280;29803;51.048;4.686;2023-02-15T09:35:16;102573.75;;;7.04;100.00
44140;BME280;29803;51.048;4.686;2023-02-15T09:37:47;102568.69;;;7.26;100.00
44140;BME280;29803;51.048;4.686;2023-02-15T09:40:17;102581.25;;;7.38;100.00
44140;BME280;29803;51.048;4.686;2023-02-15T09:43:11;102578.59;;;7.64;100.00
44140;BME280;29803;51.048;4.686;2023-02-15T09:45:57;102585.44;;;7.68;100.00
44140;BME280;29803;51.048;4.686;2023-02-15T09:48:51;102581.72;;;7.96;100.00
44140;BME280;29803;51.048;4.686;2023-02-15T09:51:49;102586.31;;;7.94;100.00
44140;BME280;29803;51.048;4.686;2023-02-15T09:54:33;102586.72;;;8.13;100.00
44140;BME280;29803;51.048;4.686;2023-02-15T10:00:12;102585.03;;;8.12;100.00
44140;BME280;29803;51.048;4.686;2023-02-15T10:23:26;102590.16;;;9.49;100.00
44140;BME280;29803;51.048;4.686;2023-02-15T10:28:55;102596.69;;;9.34;100.00
44140;BME280;29803;51.048;4.686;2023-02-15T10:34:59;102586.97;;;9.79;100.00
44140;BME280;29803;51.048;4.686;2023-02-15T10:40:28;102584.78;;;10.18;100.00
44140;BME280;29803;51.048;4.686;2023-02-15T10:54:21;102579.41;;;10.74;100.00
44140;BME280;29803;51.048;4.686;2023-02-15T11:05:37;102578.34;;;11.41;100.00
44140;BME280;29803;51.048;4.686;2023-02-15T11:08:11;102567.97;;;11.36;100.00
44140;BME280;29803;51.048;4.686;2023-02-15T11:10:48;102571.44;;;11.48;100.00
44140;BME280;29803;51.048;4.686;2023-02-15T11:13:25;102566.75;;;11.61;100.00
44140;BME280;29803;51.048;4.686;2023-02-15T11:16:04;102570.34;;;11.72;100.00
44140;BME280;29803;51.048;4.686;2023-02-15T11:18:40;102566.97;;;11.79;100.00
44140;BME280;29803;51.048;4.686;2023-02-15T11:21:32;102558.31;;;11.87;100.00
44140;BME280;29803;51.048;4.686;2023-02-15T11:24:26;102554.03;;;11.84;100.00
44140;BME280;29803;51.048;4.686;2023-02-15T11:27:03;102554.81;;;11.75;100.00
44140;BME280;29803;51.048;4.686;2023-02-15T11:29:38;102549.44;;;11.75;100.00
44140;BME280;29803;51.048;4.686;2023-02-15T11:32:21;102549.59;;;12.04;100.00
44140;BME280;29803;51.048;4.686;2023-02-15T11:34:59;102556.97;;;12.02;100.00
44140;BME280;29803;51.048;4.686;2023-02-15T11:37:36;102557.16;;;12.10;100.00
44140;BME280;29803;51.048;4.686;2023-02-15T11:40:30;102552.47;;;12.12;100.00
44140;BME280;29803;51.048;4.686;2023-02-15T11:43:07;102548.19;;;12.00;100.00
44140;BME280;29803;51.048;4.686;2023-02-15T11:45:42;102545.81;;;12.07;100.00
44140;BME280;29803;51.048;4.686;2023-02-15T11:48:15;102540.75;;;12.23;100.00
44140;BME280;29803;51.048;4.686;2023-02-15T11:50:46;102537.94;;;12.25;100.00
44140;BME280;29803;51.048;4.686;2023-02-15T11:53:19;102533.28;;;12.27;100.00
44140;BME280;29803;51.048;4.686;2023-02-15T11:55:51;102532.50;;;12.05;100.00
44140;BME280;29803;51.048;4.686;2023-02-15T11:58:39;102517.34;;;12.14;100.00
44140;BME280;29803;51.048;4.686;2023-02-15T12:01:31;102529.59;;;12.28;100.00
44140;BME280;29803;51.048;4.686;2023-02-15T12:04:08;102524.22;;;12.28;100.00
44140;BME280;29803;51.048;4.686;2023-02-15T12:06:46;102511.84;;;12.56;100.00
44140;BME280;29803;51.048;4.686;2023-02-15T12:12:30;102510.44;;;12.81;100.00
44140;BME280;29803;51.048;4.686;2023-02-15T12:15:05;102506.47;;;12.65;100.00
44140;BME280;29803;51.048;4.686;2023-02-15T12:17:41;102502.78;;;12.66;100.00
44140;BME280;29803;51.048;4.686;2023-02-15T12:23:02;102496.16;;;12.80;100.00
44140;BME280;29803;51.048;4.686;2023-02-15T12:25:37;102488.03;;;12.90;100.00
44140;BME280;29803;51.048;4.686;2023-02-15T12:28:31;102480.53;;;12.93;100.00
44140;BME280;29803;51.048;4.686;2023-02-15T12:31:07;102479.53;;;12.85;100.00
44140;BME280;29803;51.048;4.686;2023-02-15T12:33:41;102471.75;;;12.91;100.00
44140;BME280;29803;51.048;4.686;2023-02-15T12:36:19;102471.59;;;13.03;100.00
44140;BME280;29803;51.048;4.686;2023-02-15T12:44:59;102473.03;;;12.97;100.00
44140;BME280;29803;51.048;4.686;2023-02-15T12:47:31;102469.47;;;12.67;100.00
44140;BME280;29803;51.048;4.686;2023-02-15T12:50:06;102458.97;;;12.64;100.00
44140;BME280;29803;51.048;4.686;2023-02-15T12:52:37;102453.88;;;12.61;100.00
44140;BME280;29803;51.048;4.686;2023-02-15T12:55:27;102453.59;;;12.64;100.00
44140;BME280;29803;51.048;4.686;2023-02-15T12:58:17;102460.13;;;12.72;100.00
44140;BME280;29803;51.048;4.686;2023-02-15T13:01:03;102455.44;;;12.83;100.00
44140;BME280;29803;51.048;4.686;2023-02-15T13:03:34;102460.81;;;12.93;100.00
44140;BME280;29803;51.048;4.686;2023-02-15T13:06:05;102451.31;;;12.89;100.00
44140;BME280;29803;51.048;4.686;2023-02-15T13:08:47;102443.81;;;13.12;100.00
44140;BME280;29803;51.048;4.686;2023-02-15T13:11:33;102449.06;;;13.23;100.00
44140;BME280;29803;51.048;4.686;2023-02-15T13:14:18;102434.97;;;13.39;100.00
44140;BME280;29803;51.048;4.686;2023-02-15T13:16:52;102445.66;;;13.31;100.00
44140;BME280;29803;51.048;4.686;2023-02-15T13:22:16;102446.66;;;13.01;100.00
44140;BME280;29803;51.048;4.686;2023-02-15T13:24:53;102454.31;;;12.95;100.00
44140;BME280;29803;51.048;4.686;2023-02-15T13:27:35;102454.28;;;13.15;100.00
44140;BME280;29803;51.048;4.686;2023-02-15T13:33:16;102449.19;;;13.12;100.00
44140;BME280;29803;51.048;4.686;2023-02-15T13:35:56;102446.94;;;13.07;100.00
44140;BME280;29803;51.048;4.686;2023-02-15T13:41:33;102445.75;;;13.19;100.00
44140;BME280;29803;51.048;4.686;2023-02-15T13:44:09;102445.25;;;13.26;100.00
44140;BME280;29803;51.048;4.686;2023-02-15T13:49:23;102442.22;;;13.29;100.00
44140;BME280;29803;51.048;4.686;2023-02-15T13:55:21;102441.81;;;13.24;100.00
44140;BME280;29803;51.048;4.686;2023-02-15T13:58:20;102444.91;;;13.09;100.00
44140;BME280;29803;51.048;4.686;2023-02-15T14:07:15;102438.56;;;13.01;100.00
44140;BME280;29803;51.048;4.686;2023-02-15T14:09:54;102430.91;;;13.06;100.00
44140;BME280;29803;51.048;4.686;2023-02-15T14:12:40;102432.72;;;13.15;100.00
44140;BME280;29803;51.048;4.686;2023-02-15T14:18:48;102440.38;;;13.29;100.00
44140;BME280;29803;51.048;4.686;2023-02-15T14:24:42;102434.00;;;13.30;100.00
44140;BME280;29803;51.048;4.686;2023-02-15T14:30:17;102436.28;;;13.25;100.00
44140;BME280;29803;51.048;4.686;2023-02-15T14:32:52;102440.69;;;13.26;100.00
44140;BME280;29803;51.048;4.686;2023-02-15T14:35:24;102442.94;;;13.40;100.00
44140;BME280;29803;51.048;4.686;2023-02-15T14:38:18;102445.75;;;13.39;100.00
44140;BME280;29803;51.048;4.686;2023-02-15T14:41:12;102440.38;;;13.29;100.00
44140;BME280;29803;51.048;4.686;2023-02-15T14:49:36;102443.22;;;13.08;100.00
44140;BME280;29803;51.048;4.686;2023-02-15T14:52:10;102441.97;;;13.03;100.00
44140;BME280;29803;51.048;4.686;2023-02-15T15:02:52;102439.84;;;12.67;100.00
44140;BME280;29803;51.048;4.686;2023-02-15T15:05:33;102433.78;;;12.65;100.00
44140;BME280;29803;51.048;4.686;2023-02-15T15:08:05;102435.47;;;12.66;100.00
44140;BME280;29803;51.048;4.686;2023-02-15T15:16:50;102434.88;;;12.53;100.00
44140;BME280;29803;51.048;4.686;2023-02-15T15:22:25;102431.16;;;12.35;100.00
44140;BME280;29803;51.048;4.686;2023-02-15T15:24:58;102437.25;;;12.27;100.00
44140;BME280;29803;51.048;4.686;2023-02-15T15:27:50;102433.88;;;12.25;100.00
44140;BME280;29803;51.048;4.686;2023-02-15T15:32:59;102431.56;;;12.11;100.00
44140;BME280;29803;51.048;4.686;2023-02-15T15:38:49;102434.53;;;12.08;100.00
44140;BME280;29803;51.048;4.686;2023-02-15T15:50:42;102421.19;;;11.97;100.00
44140;BME280;29803;51.048;4.686;2023-02-15T15:53:19;102414.78;;;11.88;100.00
44140;BME280;29803;51.048;4.686;2023-02-15T15:55:57;102422.66;;;11.80;100.00